Time;durP1;ratioP1;P1;durP2;ratioP2;P2;SDS_P1;SDS_P2;PMS_P1;PMS_P2;Temp;Humidity;BMP_temperature;BMP_pressure;BME280_temperature;BME280_humidity;BME280_pressure;Samples;Min_cycle;Max_cycle;Signal;HPM_P1;HPM_P2
2022/09/30 00:01:43;;;;;;;3.00;2.58;;;12.90;84.80;;;;;;5076056;28;20069;-19
2022/09/30 00:04:13;;;;;;;3.95;3.30;;;12.80;84.80;;;;;;5094015;28;20115;-18
2022/09/30 00:06:39;;;;;;;3.65;2.90;;;12.80;84.80;;;;;;5093754;28;20087;-19
2022/09/30 00:09:05;;;;;;;3.33;2.90;;;12.80;84.90;;;;;;5093797;28;20059;-19
2022/09/30 00:11:34;;;;;;;3.75;2.75;;;12.80;84.80;;;;;;5094289;28;20059;-19
2022/09/30 00:14:01;;;;;;;4.45;2.70;;;12.80;84.70;;;;;;5093853;28;20030;-20
2022/09/30 00:16:29;;;;;;;3.67;2.75;;;12.80;84.70;;;;;;5093812;28;20032;-19
2022/09/30 00:18:57;;;;;;;5.80;3.67;;;12.80;84.70;;;;;;5093880;28;20074;-19
2022/09/30 00:21:24;;;;;;;3.20;2.90;;;12.80;84.80;;;;;;5093879;28;20028;-19
2022/09/30 00:23:50;;;;;;;3.88;3.10;;;12.80;84.90;;;;;;5093744;28;20444;-20
2022/09/30 00:26:19;;;;;;;3.65;2.75;;;12.80;84.80;;;;;;5093615;28;20115;-19
2022/09/30 00:28:49;;;;;;;2.88;2.63;;;12.80;84.80;;;;;;5093718;28;20027;-20
2022/09/30 00:31:18;;;;;;;5.03;3.65;;;12.80;84.80;;;;;;5094151;28;20035;-19
2022/09/30 00:34:05;;;;;;;3.75;2.88;;;12.80;84.70;;;;;;5093618;28;20028;-19
2022/09/30 00:36:39;;;;;;;4.47;3.10;;;12.80;84.70;;;;;;5093416;28;20572;-19
2022/09/30 00:39:07;;;;;;;6.65;3.83;;;12.80;85.10;;;;;;5093933;28;20431;-19
2022/09/30 00:41:34;;;;;;;6.38;3.47;;;12.80;85.30;;;;;;5093470;28;20024;-19
2022/09/30 00:44:00;;;;;;;5.88;3.55;;;12.80;85.10;;;;;;5093451;28;20074;-19
2022/09/30 00:46:37;;;;;;;3.10;2.60;;;12.80;85.30;;;;;;5093689;28;20035;-19
2022/09/30 00:49:24;;;;;;;5.43;3.50;;;12.80;84.90;;;;;;5093549;28;20107;-19
2022/09/30 00:51:54;;;;;;;3.60;2.80;;;12.80;84.80;;;;;;5093348;28;20107;-18
2022/09/30 00:54:28;;;;;;;3.83;2.75;;;12.80;84.80;;;;;;5093650;28;20050;-19
2022/09/30 00:57:01;;;;;;;5.70;3.33;;;12.80;84.80;;;;;;5093148;28;20051;-19
2022/09/30 00:59:37;;;;;;;3.63;2.65;;;12.90;84.80;;;;;;5093746;28;20043;-18
2022/09/30 01:02:04;;;;;;;4.82;3.50;;;12.80;84.80;;;;;;5093281;28;20020;-19
2022/09/30 01:04:31;;;;;;;7.40;3.30;;;12.90;84.70;;;;;;5093106;28;20077;-19
2022/09/30 01:07:07;;;;;;;5.25;3.30;;;12.90;84.70;;;;;;5092682;28;20101;-19
2022/09/30 01:09:35;;;;;;;5.53;3.58;;;12.80;85.00;;;;;;5093127;28;20471;-19
2022/09/30 01:12:07;;;;;;;3.83;2.80;;;12.90;84.70;;;;;;5093149;28;20099;-19
2022/09/30 01:14:34;;;;;;;7.55;4.35;;;12.90;84.90;;;;;;5093088;28;20039;-20
2022/09/30 01:17:37;;;;;;;4.35;3.35;;;12.90;84.80;;;;;;5093073;28;20412;-19
2022/09/30 01:20:18;;;;;;;4.35;3.05;;;12.90;84.70;;;;;;5093334;28;20024;-20
2022/09/30 01:23:21;;;;;;;3.97;3.00;;;12.80;84.70;;;;;;5093087;28;20438;-20
2022/09/30 01:26:15;;;;;;;3.53;2.93;;;12.80;84.70;;;;;;5093543;28;20043;-20
2022/09/30 01:29:21;;;;;;;3.20;2.70;;;12.80;84.60;;;;;;5097509;28;20080;-20
2022/09/30 01:32:02;;;;;;;4.40;2.88;;;12.80;84.60;;;;;;5097643;28;20107;-20
2022/09/30 01:34:53;;;;;;;7.65;3.95;;;12.80;84.60;;;;;;5097333;28;20023;-20
2022/09/30 01:37:43;;;;;;;6.75;4.13;;;12.80;84.50;;;;;;5096884;28;20031;-18
2022/09/30 01:40:22;;;;;;;5.97;3.33;;;12.80;84.50;;;;;;5097224;28;20024;-19
2022/09/30 01:43:30;;;;;;;8.73;4.82;;;12.70;84.60;;;;;;5096816;28;20437;-20
2022/09/30 01:46:07;;;;;;;5.85;3.60;;;12.70;84.60;;;;;;5069763;28;20097;-19
2022/09/30 01:49:02;;;;;;;5.88;3.88;;;12.70;84.70;;;;;;5097074;28;20028;-19
2022/09/30 01:51:40;;;;;;;5.13;3.42;;;12.70;84.70;;;;;;5053775;28;20039;-18
2022/09/30 01:54:24;;;;;;;6.18;3.97;;;12.60;84.70;;;;;;5096913;28;20052;-18
2022/09/30 01:57:04;;;;;;;8.27;5.05;;;12.70;84.70;;;;;;5096528;28;20028;-18
2022/09/30 01:59:36;;;;;;;8.02;4.88;;;12.70;84.70;;;;;;5096554;28;20463;-17
2022/09/30 02:02:24;;;;;;;7.70;4.82;;;12.70;84.70;;;;;;5097109;28;20543;-18
2022/09/30 02:04:56;;;;;;;10.35;5.28;;;12.70;84.80;;;;;;5095928;28;20063;-20
2022/09/30 02:07:44;;;;;;;5.40;3.95;;;12.70;84.70;;;;;;5096656;28;20102;-19
2022/09/30 02:10:21;;;;;;;7.68;4.93;;;12.70;84.90;;;;;;5095920;28;20056;-19
2022/09/30 02:13:02;;;;;;;7.10;4.32;;;12.70;84.80;;;;;;5096925;28;20062;-19
2022/09/30 02:15:35;;;;;;;7.85;4.70;;;12.70;84.80;;;;;;5078000;28;20020;-19
2022/09/30 02:18:26;;;;;;;8.23;5.37;;;12.70;84.80;;;;;;5096550;28;20028;-19
2022/09/30 02:20:58;;;;;;;7.43;5.30;;;12.70;84.90;;;;;;5096506;28;20045;-20
2022/09/30 02:23:34;;;;;;;9.02;5.00;;;12.80;84.90;;;;;;5096597;28;20024;-19
2022/09/30 02:26:10;;;;;;;7.95;4.55;;;12.80;84.90;;;;;;5096006;28;20446;-19
2022/09/30 02:28:41;;;;;;;5.38;3.72;;;12.90;85.20;;;;;;5096067;28;20035;-20
2022/09/30 02:31:10;;;;;;;6.70;4.28;;;12.90;85.20;;;;;;5095707;28;20032;-18
2022/09/30 02:33:45;;;;;;;5.88;4.30;;;12.80;85.30;;;;;;5096115;28;20070;-19
2022/09/30 02:36:25;;;;;;;6.43;4.10;;;12.90;85.50;;;;;;5095765;28;20032;-18
2022/09/30 02:39:05;;;;;;;5.30;4.07;;;12.80;85.20;;;;;;5095113;28;20020;-19
2022/09/30 02:41:38;;;;;;;5.50;3.88;;;12.80;85.30;;;;;;5095771;28;20527;-19
2022/09/30 02:44:05;;;;;;;5.82;3.38;;;12.80;85.30;;;;;;5096076;28;20031;-19
2022/09/30 02:46:46;;;;;;;5.40;3.90;;;12.80;85.20;;;;;;5095833;28;20047;-20
2022/09/30 02:49:43;;;;;;;5.28;3.58;;;12.80;85.10;;;;;;5095372;28;20454;-19
2022/09/30 02:52:15;;;;;;;8.75;4.78;;;12.80;85.10;;;;;;5095775;28;20442;-19
2022/09/30 02:54:51;;;;;;;5.25;3.35;;;12.90;85.10;;;;;;5095736;28;20062;-19
2022/09/30 02:57:40;;;;;;;5.72;4.10;;;12.90;85.00;;;;;;5095453;28;20479;-19
2022/09/30 03:00:07;;;;;;;6.38;4.00;;;12.90;85.10;;;;;;5043880;28;20085;-19
2022/09/30 03:02:33;;;;;;;5.25;3.85;;;12.90;85.00;;;;;;5095225;28;20119;-19
2022/09/30 03:04:59;;;;;;;5.53;3.97;;;12.90;85.00;;;;;;5094722;28;20028;-19
2022/09/30 03:07:25;;;;;;;5.57;3.97;;;12.90;84.90;;;;;;5095325;28;20032;-19
2022/09/30 03:09:57;;;;;;;12.30;6.28;;;12.90;84.90;;;;;;5095400;28;20543;-18
2022/09/30 03:12:41;;;;;;;8.73;4.28;;;13.00;84.80;;;;;;5095138;28;20407;-19
2022/09/30 03:15:32;;;;;;;9.07;5.20;;;13.00;84.70;;;;;;5095147;28;20021;-19
2022/09/30 03:18:37;;;;;;;10.45;6.63;;;13.00;84.80;;;;;;5094994;28;20063;-20
2022/09/30 03:21:20;;;;;;;9.25;4.60;;;13.10;84.80;;;;;;5081860;28;20043;-19
2022/09/30 03:24:40;;;;;;;8.80;4.57;;;13.10;84.80;;;;;;5095258;28;20058;-19
2022/09/30 03:27:31;;;;;;;6.15;4.00;;;13.10;84.80;;;;;;5055905;28;20040;-20
2022/09/30 03:30:00;;;;;;;5.07;3.88;;;13.10;84.80;;;;;;5047077;28;20031;-19
2022/09/30 03:32:29;;;;;;;6.55;4.38;;;13.10;84.90;;;;;;5094636;28;20075;-18
2022/09/30 03:35:09;;;;;;;4.85;4.05;;;13.10;84.80;;;;;;5094726;28;20039;-19
2022/09/30 03:37:53;;;;;;;5.95;4.38;;;13.10;84.70;;;;;;5094879;28;20067;-18
2022/09/30 03:40:40;;;;;;;7.95;4.72;;;13.10;84.80;;;;;;5094826;28;20051;-19
2022/09/30 03:43:16;;;;;;;6.05;4.63;;;13.10;84.90;;;;;;5094366;28;20050;-19
2022/09/30 03:46:10;;;;;;;9.15;5.53;;;13.10;84.80;;;;;;5094725;28;20039;-19
2022/09/30 03:48:38;;;;;;;6.78;4.25;;;13.10;84.90;;;;;;5094121;28;20453;-18
2022/09/30 03:51:06;;;;;;;5.30;3.85;;;13.10;84.80;;;;;;5093701;28;20107;-18
2022/09/30 03:53:39;;;;;;;7.60;4.97;;;13.00;84.70;;;;;;5094326;28;20490;-19
2022/09/30 03:56:05;;;;;;;7.25;4.68;;;13.00;84.60;;;;;;5094367;28;20110;-18
2022/09/30 03:58:32;;;;;;;6.72;4.85;;;13.00;84.80;;;;;;5095070;28;20043;-19
2022/09/30 04:00:58;;;;;;;6.22;3.95;;;12.90;84.60;;;;;;5095145;28;20106;-18
2022/09/30 04:03:26;;;;;;;6.03;4.45;;;12.90;84.70;;;;;;5094089;28;20444;-19
2022/09/30 04:05:52;;;;;;;8.98;4.75;;;12.90;84.70;;;;;;5093861;28;20113;-19
2022/09/30 04:08:19;;;;;;;9.63;6.03;;;12.90;84.70;;;;;;5094384;28;20402;-19
2022/09/30 04:10:45;;;;;;;9.95;6.10;;;12.90;84.70;;;;;;5094143;28;20035;-18
2022/09/30 04:13:11;;;;;;;9.40;6.50;;;12.90;84.70;;;;;;5093741;28;20118;-19
2022/09/30 04:15:39;;;;;;;8.07;5.25;;;12.90;84.80;;;;;;5094208;28;20158;-19
2022/09/30 04:18:06;;;;;;;6.57;4.45;;;12.80;84.80;;;;;;5093890;28;20031;-18
2022/09/30 04:20:32;;;;;;;10.50;6.93;;;12.80;84.90;;;;;;5094083;28;20028;-18
2022/09/30 04:22:59;;;;;;;7.75;5.00;;;12.70;84.80;;;;;;5093581;28;20028;-19
2022/09/30 04:25:27;;;;;;;10.25;6.03;;;12.70;84.80;;;;;;5094010;28;20020;-18
2022/09/30 04:27:53;;;;;;;8.98;4.47;;;12.60;84.80;;;;;;5094020;28;20032;-18
2022/09/30 04:30:20;;;;;;;8.48;4.70;;;12.60;84.90;;;;;;5075526;28;20121;-19
2022/09/30 04:32:45;;;;;;;7.22;4.63;;;12.50;85.00;;;;;;5093635;28;20518;-19
2022/09/30 04:35:13;;;;;;;6.78;4.75;;;12.50;85.00;;;;;;5093713;28;20027;-19
2022/09/30 04:37:45;;;;;;;7.60;5.03;;;12.50;85.00;;;;;;5093466;28;20036;-19
2022/09/30 04:40:14;;;;;;;7.43;4.63;;;12.40;85.00;;;;;;5093899;28;20028;-18
2022/09/30 04:42:41;;;;;;;7.38;4.55;;;12.40;85.10;;;;;;5093839;28;20056;-20
2022/09/30 04:45:12;;;;;;;7.63;5.15;;;12.40;85.00;;;;;;5093507;28;20042;-19
2022/09/30 04:47:38;;;;;;;8.63;5.18;;;12.40;85.10;;;;;;5093415;28;20053;-19
2022/09/30 04:50:06;;;;;;;7.97;5.20;;;12.40;85.10;;;;;;5093667;28;20020;-19
2022/09/30 04:52:32;;;;;;;6.25;4.68;;;12.40;85.10;;;;;;5093287;28;20115;-19
2022/09/30 04:54:58;;;;;;;7.95;5.32;;;12.40;85.10;;;;;;5093392;28;20103;-18
2022/09/30 04:57:24;;;;;;;9.77;6.10;;;12.40;85.10;;;;;;5093294;28;20471;-19
2022/09/30 04:59:50;;;;;;;10.40;6.38;;;12.30;85.10;;;;;;5093246;28;20028;-19
2022/09/30 05:02:16;;;;;;;8.90;5.40;;;12.20;85.10;;;;;;5093073;28;20052;-19
2022/09/30 05:04:45;;;;;;;11.50;5.78;;;12.20;85.10;;;;;;5093146;28;20134;-19
2022/09/30 05:07:11;;;;;;;12.70;5.80;;;12.20;85.20;;;;;;5072902;28;20446;-19
2022/09/30 05:09:37;;;;;;;8.57;5.35;;;12.20;85.20;;;;;;5055077;28;20476;-19
2022/09/30 05:12:03;;;;;;;9.93;6.78;;;12.20;85.20;;;;;;5073209;28;20379;-19
2022/09/30 05:14:29;;;;;;;9.73;6.63;;;12.20;85.30;;;;;;5073191;28;20106;-19
2022/09/30 05:16:55;;;;;;;10.75;6.47;;;12.20;85.30;;;;;;5072818;28;20051;-19
2022/09/30 05:19:21;;;;;;;14.07;7.03;;;12.20;85.30;;;;;;5073484;28;20028;-18
2022/09/30 05:21:47;;;;;;;8.55;5.22;;;12.10;85.40;;;;;;5073112;28;20464;-20
2022/09/30 05:24:14;;;;;;;7.38;4.70;;;12.10;85.40;;;;;;5073070;28;20024;-20
2022/09/30 05:26:40;;;;;;;8.13;4.97;;;12.10;85.50;;;;;;5072852;28;20024;-20
2022/09/30 05:29:06;;;;;;;9.85;5.90;;;12.10;85.50;;;;;;5072623;28;20082;-20
2022/09/30 05:31:33;;;;;;;10.93;6.03;;;12.10;85.50;;;;;;5054775;28;20043;-20
2022/09/30 05:33:59;;;;;;;13.27;7.70;;;12.20;85.40;;;;;;5072921;28;20104;-19
2022/09/30 05:36:25;;;;;;;10.10;6.68;;;12.20;85.50;;;;;;5072929;28;20108;-19
2022/09/30 05:38:52;;;;;;;9.30;5.82;;;12.20;85.40;;;;;;5072564;28;20025;-20
2022/09/30 05:41:23;;;;;;;17.02;8.10;;;12.20;85.40;;;;;;5072966;28;20032;-19
2022/09/30 05:43:49;;;;;;;10.52;7.30;;;12.20;85.40;;;;;;5072986;28;20048;-19
2022/09/30 05:46:19;;;;;;;14.73;7.90;;;12.30;85.50;;;;;;5072548;28;20075;-19
2022/09/30 05:48:46;;;;;;;12.90;7.30;;;12.30;85.50;;;;;;5072772;28;20016;-19
2022/09/30 05:51:12;;;;;;;14.70;9.35;;;12.30;85.60;;;;;;5054848;28;20028;-19
2022/09/30 05:53:40;;;;;;;12.23;6.97;;;12.40;86.00;;;;;;5072821;28;20032;-19
2022/09/30 05:56:07;;;;;;;8.75;5.45;;;12.40;85.80;;;;;;5072766;28;20028;-20
2022/09/30 05:58:34;;;;;;;9.15;6.00;;;12.50;85.80;;;;;;5072861;28;20103;-19
2022/09/30 06:01:08;;;;;;;9.70;5.70;;;12.60;85.90;;;;;;5072645;28;20098;-18
2022/09/30 06:03:35;;;;;;;9.10;5.53;;;12.70;86.10;;;;;;5072871;28;20050;-19
2022/09/30 06:06:01;;;;;;;10.63;5.70;;;12.80;86.20;;;;;;5082597;28;20090;-19
2022/09/30 06:08:27;;;;;;;10.57;5.75;;;12.90;86.30;;;;;;5092607;28;20555;-19
2022/09/30 06:10:53;;;;;;;9.20;5.60;;;13.00;86.70;;;;;;5092704;28;20110;-20
2022/09/30 06:13:20;;;;;;;6.68;4.15;;;13.10;86.80;;;;;;5094803;28;20436;-19
2022/09/30 06:15:58;;;;;;;8.13;4.82;;;13.10;86.60;;;;;;5096542;28;20078;-19
2022/09/30 06:18:26;;;;;;;8.30;4.93;;;13.30;86.60;;;;;;5096516;28;20077;-20
2022/09/30 06:20:55;;;;;;;7.13;4.43;;;13.30;86.90;;;;;;5095829;28;20028;-20
2022/09/30 06:23:21;;;;;;;6.78;3.53;;;13.40;86.80;;;;;;5096178;28;20036;-18
2022/09/30 06:25:52;;;;;;;6.20;3.28;;;13.50;86.60;;;;;;5096283;28;20024;-19
2022/09/30 06:28:18;;;;;;;5.47;3.10;;;13.50;86.10;;;;;;5095990;28;20106;-18
2022/09/30 06:30:45;;;;;;;6.65;2.58;;;13.60;86.10;;;;;;5095983;28;20032;-18
2022/09/30 06:33:12;;;;;;;5.18;3.00;;;13.80;85.80;;;;;;5095765;28;20016;-20
2022/09/30 06:35:41;;;;;;;4.15;2.67;;;13.90;85.60;;;;;;5096039;28;20081;-19
2022/09/30 06:38:09;;;;;;;6.03;2.30;;;14.00;85.20;;;;;;5096117;28;20082;-19
2022/09/30 06:40:35;;;;;;;7.82;2.17;;;14.10;85.20;;;;;;5095996;28;20126;-18
2022/09/30 06:43:02;;;;;;;4.63;2.20;;;14.20;84.90;;;;;;5095531;28;20017;-18
2022/09/30 06:45:31;;;;;;;5.20;1.92;;;14.40;84.70;;;;;;5096063;28;20020;-19
2022/09/30 06:48:02;;;;;;;5.03;1.98;;;14.40;84.70;;;;;;5095909;28;20032;-19
2022/09/30 06:50:29;;;;;;;10.68;2.55;;;14.50;84.70;;;;;;5095730;28;20016;-19
2022/09/30 06:52:59;;;;;;;5.75;1.90;;;14.60;85.20;;;;;;5095419;28;20032;-19
2022/09/30 06:55:27;;;;;;;4.25;1.70;;;14.80;85.10;;;;;;5095770;28;20028;-19
2022/09/30 06:57:54;;;;;;;9.45;2.17;;;14.90;84.70;;;;;;5095517;28;20027;-19
2022/09/30 07:00:21;;;;;;;5.43;2.05;;;15.00;84.70;;;;;;5095375;28;20360;-20
2022/09/30 07:02:47;;;;;;;6.28;2.00;;;15.10;84.20;;;;;;5095954;28;20103;-19
2022/09/30 07:05:15;;;;;;;6.50;2.00;;;15.20;84.50;;;;;;5095254;28;20086;-20
2022/09/30 07:07:42;;;;;;;3.42;1.75;;;15.20;84.00;;;;;;5095465;28;20094;-20
2022/09/30 07:10:09;;;;;;;4.75;2.13;;;15.30;84.20;;;;;;5095204;28;20077;-20
2022/09/30 07:12:35;;;;;;;6.10;2.25;;;15.30;83.90;;;;;;5095122;28;20432;-20
2022/09/30 07:15:02;;;;;;;7.57;2.35;;;15.40;82.80;;;;;;5094975;28;20020;-19
2022/09/30 07:17:28;;;;;;;8.00;2.40;;;15.50;84.00;;;;;;5076934;28;20063;-19
2022/09/30 07:19:54;;;;;;;7.00;2.50;;;15.70;83.80;;;;;;5095313;28;20021;-20
2022/09/30 07:22:27;;;;;;;5.30;2.30;;;15.90;82.90;;;;;;5094993;28;20024;-20
2022/09/30 07:24:55;;;;;;;3.80;2.15;;;16.00;83.10;;;;;;5095034;28;20031;-19
2022/09/30 07:27:21;;;;;;;5.63;2.15;;;16.10;82.30;;;;;;5095097;28;20032;-19
2022/09/30 07:29:47;;;;;;;3.25;1.88;;;16.10;82.20;;;;;;5076820;28;20483;-19
2022/09/30 07:32:14;;;;;;;4.53;1.65;;;16.20;82.20;;;;;;5094987;28;20388;-19
2022/09/30 07:34:43;;;;;;;5.78;2.33;;;16.20;81.60;;;;;;5094670;28;20039;-20
2022/09/30 07:37:11;;;;;;;6.30;2.17;;;16.30;81.60;;;;;;5094471;28;20020;-19
2022/09/30 07:39:37;;;;;;;7.28;2.08;;;16.30;82.10;;;;;;5094610;28;20032;-20
2022/09/30 07:42:04;;;;;;;4.20;2.00;;;16.40;82.00;;;;;;5076460;28;20024;-19
2022/09/30 07:44:31;;;;;;;4.45;2.10;;;16.40;81.60;;;;;;5094544;28;20031;-20
2022/09/30 07:46:57;;;;;;;4.50;2.40;;;16.40;81.50;;;;;;5094162;28;20083;-19
2022/09/30 07:49:24;;;;;;;5.38;2.20;;;16.50;81.50;;;;;;5094409;28;20118;-18
2022/09/30 07:51:52;;;;;;;9.77;2.38;;;16.50;81.00;;;;;;5094287;28;20032;-19
2022/09/30 07:54:24;;;;;;;7.28;2.25;;;16.60;80.70;;;;;;5094488;28;20015;-18
2022/09/30 07:56:51;;;;;;;7.18;2.55;;;16.70;81.40;;;;;;5076017;28;20119;-20
2022/09/30 07:59:17;;;;;;;6.20;2.28;;;16.90;81.20;;;;;;5094270;28;20032;-19
2022/09/30 08:01:45;;;;;;;6.53;2.53;;;17.00;81.10;;;;;;5094292;28;20027;-20
2022/09/30 08:04:12;;;;;;;9.85;2.53;;;17.20;81.20;;;;;;5094807;28;20046;-19
2022/09/30 08:06:46;;;;;;;6.15;2.22;;;17.30;79.20;;;;;;5094012;28;20097;-19
2022/09/30 08:09:14;;;;;;;12.55;2.90;;;17.40;79.90;;;;;;5093967;28;20027;-19
2022/09/30 08:11:41;;;;;;;9.32;2.47;;;17.40;79.30;;;;;;5094304;28;20063;-19
2022/09/30 08:14:22;;;;;;;6.10;2.40;;;17.30;79.70;;;;;;5094344;28;20024;-19
2022/09/30 08:16:49;;;;;;;13.32;2.78;;;17.40;79.20;;;;;;5094136;28;20115;-18
2022/09/30 08:19:18;;;;;;;4.28;2.10;;;17.40;79.20;;;;;;5093811;28;20115;-19
2022/09/30 08:21:44;;;;;;;6.95;2.40;;;17.40;79.50;;;;;;5094106;28;20024;-19
2022/09/30 08:24:11;;;;;;;7.25;2.33;;;17.50;78.80;;;;;;5093776;28;20024;-19
2022/09/30 08:26:38;;;;;;;9.95;2.60;;;17.50;78.60;;;;;;5094210;28;20032;-18
2022/09/30 08:29:05;;;;;;;7.72;2.20;;;17.40;78.10;;;;;;5093508;28;20114;-19
2022/09/30 08:31:34;;;;;;;6.55;2.22;;;17.40;78.90;;;;;;5093622;28;20031;-18
2022/09/30 08:34:01;;;;;;;9.93;2.67;;;17.60;79.00;;;;;;5093622;28;20024;-20
2022/09/30 08:36:28;;;;;;;6.07;2.20;;;17.60;78.60;;;;;;5093330;28;20054;-20
2022/09/30 08:38:55;;;;;;;7.32;2.35;;;17.70;79.50;;;;;;5093713;28;20064;-19
2022/09/30 08:41:29;;;;;;;6.47;2.30;;;17.80;78.80;;;;;;5075880;28;20492;-19
2022/09/30 08:44:29;;;;;;;6.20;2.10;;;17.90;79.10;;;;;;5093933;28;20020;-20
2022/09/30 08:47:00;;;;;;;7.60;2.40;;;18.10;78.80;;;;;;5093475;28;20031;-18
2022/09/30 08:49:35;;;;;;;6.03;2.35;;;18.30;76.50;;;;;;5075359;28;20028;-19
2022/09/30 08:52:04;;;;;;;3.90;2.40;;;18.40;78.40;;;;;;5093625;28;20028;-19
2022/09/30 08:54:33;;;;;;;7.93;2.78;;;18.40;77.40;;;;;;5093444;28;20124;-19
2022/09/30 08:57:02;;;;;;;6.90;2.22;;;18.70;76.80;;;;;;5093093;28;20035;-20
2022/09/30 08:59:39;;;;;;;5.18;2.38;;;19.00;75.30;;;;;;5093263;28;20165;-20
2022/09/30 09:02:26;;;;;;;5.07;2.20;;;19.30;74.90;;;;;;5093689;28;20024;-19
2022/09/30 09:04:56;;;;;;;5.40;2.65;;;19.30;74.60;;;;;;5092770;28;20499;-20
2022/09/30 09:07:47;;;;;;;5.07;1.98;;;19.30;74.40;;;;;;5093051;28;20379;-20
2022/09/30 09:10:29;;;;;;;4.85;1.83;;;19.20;73.90;;;;;;5093207;28;20031;-18
2022/09/30 09:12:58;;;;;;;5.90;2.10;;;19.10;74.80;;;;;;5093065;28;20081;-19
2022/09/30 09:16:08;;;;;;;5.63;2.33;;;19.10;75.10;;;;;;5093581;28;20559;-19
2022/09/30 09:18:58;;;;;;;4.22;1.67;;;19.00;74.50;;;;;;5093367;28;20024;-19
2022/09/30 09:21:30;;;;;;;3.13;2.17;;;19.00;74.80;;;;;;5093007;28;20574;-19
2022/09/30 09:24:00;;;;;;;4.80;2.23;;;19.00;75.20;;;;;;5094265;28;20051;-18
2022/09/30 09:26:34;;;;;;;8.00;2.25;;;19.00;74.90;;;;;;5093565;28;20121;-19
2022/09/30 09:29:34;;;;;;;4.60;2.20;;;19.00;75.20;;;;;;5093200;28;20025;-18
2022/09/30 09:32:02;;;;;;;3.80;2.10;;;19.10;73.90;;;;;;5093438;28;20020;-19
2022/09/30 09:34:29;;;;;;;3.97;1.95;;;19.10;74.70;;;;;;5092874;28;20061;-19
2022/09/30 09:37:05;;;;;;;4.75;1.90;;;19.20;74.50;;;;;;5092721;28;20392;-19
2022/09/30 09:39:40;;;;;;;6.38;2.00;;;19.30;74.50;;;;;;5092883;28;20369;-20
2022/09/30 09:42:24;;;;;;;6.43;1.90;;;19.40;74.30;;;;;;5092914;28;20079;-19
2022/09/30 09:45:27;;;;;;;3.28;1.58;;;19.50;73.70;;;;;;5092372;28;20024;-18
2022/09/30 09:47:56;;;;;;;4.38;1.90;;;19.60;73.70;;;;;;5089603;28;20036;-18
2022/09/30 09:50:53;;;;;;;8.70;2.45;;;19.70;73.00;;;;;;5096618;28;20372;-19
2022/09/30 09:53:48;;;;;;;5.95;1.98;;;19.70;72.70;;;;;;5057320;28;20032;-19
2022/09/30 09:56:20;;;;;;;4.63;2.10;;;19.90;72.70;;;;;;5078180;28;20076;-19
2022/09/30 09:59:14;;;;;;;5.68;2.17;;;20.10;72.30;;;;;;5125949;22;20425;-15
2022/09/30 10:01:59;;;;;;;5.97;2.00;;;20.20;70.90;;;;;;5076551;28;20490;-15
2022/09/30 10:04:29;;;;;;;7.43;2.00;;;20.40;71.80;;;;;;5076364;28;20035;-14
2022/09/30 10:07:00;;;;;;;4.38;1.77;;;20.40;72.10;;;;;;5075860;28;20032;-14
2022/09/30 10:09:35;;;;;;;4.00;1.88;;;20.30;70.40;;;;;;5076164;28;20060;-14
2022/09/30 10:12:04;;;;;;;4.38;2.03;;;20.20;71.70;;;;;;5076288;28;20024;-13
2022/09/30 10:14:35;;;;;;;6.07;2.00;;;20.30;72.00;;;;;;5076023;28;20024;-14
2022/09/30 10:17:04;;;;;;;6.93;2.05;;;20.30;71.50;;;;;;5075625;28;20479;-14
2022/09/30 10:19:33;;;;;;;6.43;1.80;;;20.40;71.90;;;;;;5075949;28;20538;-14
2022/09/30 10:22:08;;;;;;;4.68;2.10;;;20.30;72.00;;;;;;5075677;28;20082;-14
2022/09/30 10:24:36;;;;;;;7.28;2.08;;;20.30;71.90;;;;;;5075872;28;20029;-14
2022/09/30 10:27:03;;;;;;;6.70;2.20;;;20.30;72.00;;;;;;5075137;28;20035;-14
2022/09/30 10:29:32;;;;;;;5.05;2.10;;;20.20;71.80;;;;;;5075443;28;20081;-15
2022/09/30 10:32:05;;;;;;;4.97;1.98;;;20.10;72.50;;;;;;5075373;28;20491;-14
2022/09/30 10:34:41;;;;;;;5.25;2.22;;;20.10;72.50;;;;;;5075490;28;20027;-14
2022/09/30 10:37:20;;;;;;;2.63;2.08;;;20.10;72.80;;;;;;5075442;28;20051;-14
2022/09/30 10:39:56;;;;;;;4.03;2.08;;;20.10;72.40;;;;;;5076068;28;20468;-14
2022/09/30 10:42:31;;;;;;;5.38;2.30;;;20.20;72.70;;;;;;5075784;28;20039;-14
2022/09/30 10:45:09;;;;;;;5.57;2.58;;;20.10;71.80;;;;;;5075587;28;20111;-14
2022/09/30 10:47:42;;;;;;;7.80;2.60;;;20.00;72.20;;;;;;5075844;28;20024;-14
2022/09/30 10:50:15;;;;;;;5.20;2.42;;;19.90;72.60;;;;;;5075749;28;20021;-14
2022/09/30 10:53:04;;;;;;;6.60;2.55;;;19.90;72.40;;;;;;5075458;28;20078;-14
2022/09/30 10:55:32;;;;;;;5.97;2.38;;;19.90;73.00;;;;;;5075692;28;20384;-14
2022/09/30 10:58:40;;;;;;;3.60;2.03;;;19.80;72.90;;;;;;5074990;28;20045;-14
2022/09/30 11:01:31;;;;;;;4.03;1.90;;;19.70;73.80;;;;;;5075045;28;20485;-14
2022/09/30 11:04:24;;;;;;;5.22;2.28;;;19.60;72.80;;;;;;5075156;28;20028;-14
2022/09/30 11:06:57;;;;;;;5.82;2.22;;;19.60;72.90;;;;;;5074883;28;20475;-14
2022/09/30 11:09:35;;;;;;;5.25;1.85;;;19.60;73.20;;;;;;5075644;28;20109;-14
2022/09/30 11:12:23;;;;;;;5.63;1.98;;;19.70;73.40;;;;;;5075294;28;20025;-14
2022/09/30 11:15:12;;;;;;;2.22;1.75;;;19.70;73.50;;;;;;5074845;28;20020;-13
2022/09/30 11:17:46;;;;;;;8.02;2.13;;;19.50;73.70;;;;;;5075156;28;20032;-14
2022/09/30 11:20:25;;;;;;;6.75;2.50;;;19.40;73.20;;;;;;5075064;28;20070;-13
2022/09/30 11:22:59;;;;;;;5.00;1.98;;;19.20;73.80;;;;;;5074843;28;20025;-14
2022/09/30 11:25:37;;;;;;;5.72;2.20;;;19.20;74.90;;;;;;5074921;28;20041;-14
2022/09/30 11:28:35;;;;;;;6.25;2.13;;;19.10;74.90;;;;;;5074648;28;20070;-14
2022/09/30 11:31:18;;;;;;;6.28;2.53;;;19.10;75.50;;;;;;5074558;28;20029;-14
2022/09/30 11:34:03;;;;;;;4.70;2.08;;;19.10;75.30;;;;;;5074589;28;20035;-14
2022/09/30 11:36:31;;;;;;;5.30;2.25;;;19.00;75.90;;;;;;5074671;28;20034;-14
2022/09/30 11:39:48;;;;;;;4.45;2.25;;;19.00;76.00;;;;;;5074518;28;20032;-14
2022/09/30 11:42:32;;;;;;;7.28;2.50;;;19.00;76.20;;;;;;4992972;28;20034;-15
2022/09/30 11:45:41;;;;;;;4.78;2.10;;;19.00;76.80;;;;;;4992553;28;20041;-14
2022/09/30 11:48:25;;;;;;;2.95;2.33;;;19.00;76.30;;;;;;4974709;28;20030;-14
2022/09/30 11:51:15;;;;;;;7.65;2.35;;;19.00;76.50;;;;;;4992847;28;20113;-14
2022/09/30 11:54:08;;;;;;;7.03;2.42;;;19.10;76.40;;;;;;4992515;28;20093;-14
2022/09/30 11:56:42;;;;;;;3.22;2.22;;;19.10;76.40;;;;;;4992899;28;20045;-14
2022/09/30 11:59:27;;;;;;;5.07;1.98;;;19.00;76.30;;;;;;5010902;28;20065;-14
2022/09/30 12:01:56;;;;;;;4.47;2.42;;;19.00;76.20;;;;;;5012031;28;20544;-15
2022/09/30 12:04:29;;;;;;;4.55;2.40;;;19.00;76.30;;;;;;5011926;28;20034;-14
2022/09/30 12:07:16;;;;;;;4.80;2.60;;;19.00;76.70;;;;;;5011648;28;20034;-14
2022/09/30 12:10:00;;;;;;;6.07;2.67;;;18.90;76.60;;;;;;5011663;28;20091;-14
2022/09/30 12:12:26;;;;;;;5.55;2.92;;;18.90;77.50;;;;;;5011792;28;20091;-15
2022/09/30 12:15:05;;;;;;;4.35;2.40;;;18.80;77.50;;;;;;5014877;28;20037;-15
2022/09/30 12:17:41;;;;;;;6.45;2.90;;;18.80;77.30;;;;;;5073495;28;20495;-15
2022/09/30 12:20:37;;;;;;;7.35;2.83;;;18.80;77.80;;;;;;5073448;28;20017;-15
2022/09/30 12:23:13;;;;;;;7.13;3.47;;;18.80;77.70;;;;;;5073175;28;20480;-15
2022/09/30 12:25:45;;;;;;;4.28;2.90;;;18.80;77.80;;;;;;5074105;28;20111;-15
2022/09/30 12:31:34;;;;;;;5.22;2.92;;;18.70;78.30;;;;;;5073541;28;20440;-15
2022/09/30 12:34:38;;;;;;;5.70;3.33;;;18.70;78.70;;;;;;5073476;28;20127;-15
2022/09/30 12:37:25;;;;;;;5.18;3.22;;;18.70;78.90;;;;;;5073175;28;20023;-14
2022/09/30 12:40:21;;;;;;;8.32;3.33;;;18.70;79.00;;;;;;5073347;28;20135;-15
2022/09/30 12:43:12;;;;;;;5.85;3.10;;;18.60;79.00;;;;;;5073384;28;20059;-15
2022/09/30 12:45:52;;;;;;;4.95;2.85;;;18.60;79.00;;;;;;5073852;28;20480;-15
2022/09/30 12:48:21;;;;;;;6.32;3.25;;;18.50;79.30;;;;;;5073384;28;20039;-14
2022/09/30 12:50:51;;;;;;;5.68;2.83;;;18.50;79.30;;;;;;5073437;28;20017;-15
2022/09/30 12:53:24;;;;;;;5.88;2.90;;;18.50;79.60;;;;;;5073597;28;20250;-14
2022/09/30 12:55:51;;;;;;;3.58;2.65;;;18.50;79.80;;;;;;5073252;28;20387;-15
2022/09/30 12:58:25;;;;;;;9.07;3.20;;;18.40;80.10;;;;;;5073377;28;20049;-14
2022/09/30 13:01:25;;;;;;;5.95;3.08;;;18.40;80.10;;;;;;5073130;28;20020;-14
2022/09/30 13:04:00;;;;;;;5.05;3.17;;;18.30;80.60;;;;;;5055169;28;20020;-15
2022/09/30 13:06:45;;;;;;;4.93;3.10;;;18.30;80.20;;;;;;5073303;28;20487;-14
2022/09/30 13:09:21;;;;;;;5.72;2.78;;;18.20;80.70;;;;;;5072817;28;20021;-14
2022/09/30 13:12:12;;;;;;;4.35;2.65;;;18.20;81.20;;;;;;5073253;28;20024;-14
2022/09/30 13:14:44;;;;;;;5.18;3.03;;;18.10;81.50;;;;;;5072825;28;20111;-14
2022/09/30 13:17:10;;;;;;;5.40;2.97;;;18.00;81.30;;;;;;5072674;28;20111;-13
2022/09/30 13:19:43;;;;;;;5.05;3.13;;;18.00;81.30;;;;;;5055057;28;20151;-14
2022/09/30 13:22:22;;;;;;;6.18;2.85;;;18.00;81.60;;;;;;5074797;28;20117;-14
2022/09/30 13:25:03;;;;;;;4.45;2.90;;;18.00;81.80;;;;;;5076840;28;20056;-13
2022/09/30 13:28:04;;;;;;;7.75;3.33;;;17.90;81.90;;;;;;5077456;28;20491;-13